Time;durP1;ratioP1;P1;durP2;ratioP2;P2;SDS_P1;SDS_P2;PMS_P1;PMS_P2;Temp;Humidity;BMP_temperature;BMP_pressure;BME280_temperature;BME280_humidity;BME280_pressure;Samples;Min_cycle;Max_cycle;Signal;HPM_P1;HPM_P2
2022/02/20 00:02:08;;;;;;;;;;;2.70;98.60;;;;;;5051998;28;19915;-72
2022/02/20 00:04:34;;;;;;;;;;;2.60;98.20;;;;;;5051973;28;19925;-72
2022/02/20 00:06:59;;;;;;;;;;;2.40;99.00;;;;;;5051548;28;20014;-72
2022/02/20 00:09:25;;;;;;;;;;;2.30;99.80;;;;;;5017646;28;20368;-72
2022/02/20 00:11:51;;;;;;;;;;;2.30;99.90;;;;;;5033960;28;19908;-72
2022/02/20 00:14:16;;;;;;;;;;;2.30;99.90;;;;;;5017588;28;20007;-72
2022/02/20 00:16:42;;;;;;;;;;;2.30;99.90;;;;;;5051779;28;19956;-72
2022/02/20 00:19:07;;;;;;;;;;;2.30;99.90;;;;;;5034177;28;20424;-72
2022/02/20 00:21:33;;;;;;;;;;;2.20;99.90;;;;;;5033945;28;20138;-73
2022/02/20 00:23:59;;;;;;;;;;;2.10;99.90;;;;;;5033947;28;19912;-72
2022/02/20 00:26:24;;;;;;;;;;;2.30;99.90;;;;;;5051595;28;20400;-72
2022/02/20 00:28:50;;;;;;;;;;;2.10;99.90;;;;;;5051824;28;19915;-73
2022/02/20 00:31:16;;;;;;;;;;;2.10;99.90;;;;;;5051846;28;19948;-72
2022/02/20 00:33:41;;;;;;;;;;;2.20;99.90;;;;;;5051821;28;20387;-72
2022/02/20 00:36:07;;;;;;;;;;;2.30;99.90;;;;;;5033773;28;19913;-73
2022/02/20 00:38:33;;;;;;;;;;;2.30;99.90;;;;;;5051702;28;19909;-72
2022/02/20 00:40:58;;;;;;;;;;;2.30;99.90;;;;;;5051921;28;20395;-72
2022/02/20 00:43:24;;;;;;;;;;;2.20;99.90;;;;;;5037572;28;19920;-72
2022/02/20 00:45:50;;;;;;;;;;;2.20;99.90;;;;;;5055413;28;19958;-72
2022/02/20 00:48:19;;;;;;;;;;;2.30;99.90;;;;;;5037295;28;19915;-72
2022/02/20 00:50:45;;;;;;;;;;;2.30;99.90;;;;;;5055517;28;20391;-72
2022/02/20 00:53:11;;;;;;;;;;;2.30;99.90;;;;;;5055200;28;19917;-72
2022/02/20 00:55:37;;;;;;;;;;;2.30;99.90;;;;;;5055324;28;20459;-73
2022/02/20 00:58:02;;;;;;;;;;;2.50;99.90;;;;;;5055209;28;19908;-72
2022/02/20 01:00:28;;;;;;;;;;;2.40;99.90;;;;;;5055211;28;19909;-72
2022/02/20 01:02:54;;;;;;;;;;;2.40;99.90;;;;;;5054947;28;20399;-72
2022/02/20 01:05:20;;;;;;;;;;;2.40;99.90;;;;;;5055042;28;19917;-72
2022/02/20 01:07:46;;;;;;;;;;;2.40;99.90;;;;;;5036951;28;19916;-72
2022/02/20 01:10:13;;;;;;;;;;;2.30;99.90;;;;;;5054975;28;19913;-72
2022/02/20 01:12:39;;;;;;;;;;;2.30;99.90;;;;;;5054884;28;19909;-72
2022/02/20 01:15:05;;;;;;;;;;;2.40;99.90;;;;;;5037115;28;19915;-72
2022/02/20 01:17:31;;;;;;;;;;;2.50;99.90;;;;;;5054692;28;19913;-72
2022/02/20 01:19:57;;;;;;;;;;;2.60;99.90;;;;;;5036815;28;19909;-72
2022/02/20 01:22:23;;;;;;;;;;;2.70;99.90;;;;;;5054733;28;20365;-72
2022/02/20 01:24:48;;;;;;;;;;;2.80;99.90;;;;;;5036759;28;20012;-72
2022/02/20 01:27:14;;;;;;;;;;;2.90;99.90;;;;;;5054629;28;19912;-72
2022/02/20 01:29:39;;;;;;;;;;;2.90;99.90;;;;;;5054687;28;19916;-72
2022/02/20 01:32:05;;;;;;;;;;;3.00;99.90;;;;;;5054591;28;19909;-72
2022/02/20 01:34:31;;;;;;;;;;;3.00;99.90;;;;;;5036686;28;19909;-72
2022/02/20 01:36:57;;;;;;;;;;;3.10;99.90;;;;;;5020024;28;20011;-72
2022/02/20 01:39:23;;;;;;;;;;;3.10;99.90;;;;;;5054737;28;19996;-72
2022/02/20 01:41:49;;;;;;;;;;;3.20;99.90;;;;;;5054310;28;19909;-72
2022/02/20 01:44:15;;;;;;;;;;;3.30;99.50;;;;;;5054237;28;19912;-72
2022/02/20 01:46:43;;;;;;;;;;;3.30;99.40;;;;;;5036367;28;20280;-72
2022/02/20 01:49:11;;;;;;;;;;;3.30;99.00;;;;;;5036364;28;20394;-72
2022/02/20 01:51:36;;;;;;;;;;;3.40;98.80;;;;;;5036428;28;20412;-72
2022/02/20 01:54:02;;;;;;;;;;;3.50;98.50;;;;;;5035036;28;19967;-72
2022/02/20 01:56:28;;;;;;;;;;;3.50;97.70;;;;;;5054031;28;19908;-72
2022/02/20 01:58:53;;;;;;;;;;;3.40;98.10;;;;;;5054437;28;19912;-72
2022/02/20 02:01:19;;;;;;;;;;;3.40;97.70;;;;;;5054146;28;20414;-72
2022/02/20 02:03:44;;;;;;;;;;;3.40;97.90;;;;;;5053844;28;20284;-72
2022/02/20 02:06:10;;;;;;;;;;;3.50;97.80;;;;;;5035934;28;19913;-72
2022/02/20 02:08:36;;;;;;;;;;;3.60;97.50;;;;;;5053926;28;19927;-72
2022/02/20 02:11:02;;;;;;;;;;;3.60;97.60;;;;;;5053810;28;19944;-72
2022/02/20 02:13:27;;;;;;;;;;;3.60;97.10;;;;;;5053839;28;19916;-72
2022/02/20 02:15:54;;;;;;;;;;;3.50;97.10;;;;;;5035585;28;19916;-72
2022/02/20 02:18:20;;;;;;;;;;;3.60;97.10;;;;;;5053804;28;19916;-72
2022/02/20 02:20:46;;;;;;;;;;;3.70;97.00;;;;;;5053774;28;20315;-72
2022/02/20 02:23:13;;;;;;;;;;;3.80;96.70;;;;;;5052184;28;19920;-72
2022/02/20 02:25:39;;;;;;;;;;;3.80;95.90;;;;;;5053292;28;19964;-72
2022/02/20 02:28:05;;;;;;;;;;;3.90;94.90;;;;;;5053612;28;20404;-72
2022/02/20 02:30:30;;;;;;;;;;;4.00;94.20;;;;;;5053413;28;19916;-72
2022/02/20 02:32:56;;;;;;;;;;;4.10;92.90;;;;;;5053363;28;19998;-72
2022/02/20 02:35:22;;;;;;;;;;;4.20;91.90;;;;;;5035529;28;19916;-72
2022/02/20 02:37:47;;;;;;;;;;;4.30;91.10;;;;;;5035321;28;19909;-72
2022/02/20 02:40:13;;;;;;;;;;;4.40;90.00;;;;;;5053267;28;19909;-73
2022/02/20 02:42:39;;;;;;;;;;;4.50;88.30;;;;;;5053597;28;20403;-72
2022/02/20 02:45:05;;;;;;;;;;;4.50;87.70;;;;;;5035290;28;19980;-72
2022/02/20 02:47:31;;;;;;;;;;;4.60;85.70;;;;;;5035450;28;19995;-72
2022/02/20 02:49:56;;;;;;;;;;;4.60;84.40;;;;;;5035240;28;19952;-72
2022/02/20 02:52:22;;;;;;;;;;;4.60;85.10;;;;;;5035151;28;19951;-72
2022/02/20 02:54:47;;;;;;;;;;;4.50;86.90;;;;;;5018482;28;19967;-72
2022/02/20 02:57:13;;;;;;;;;;;4.40;87.80;;;;;;5052713;28;19961;-72
2022/02/20 02:59:39;;;;;;;;;;;4.40;88.60;;;;;;5032017;28;20324;-72
2022/02/20 03:02:06;;;;;;;;;;;4.30;89.10;;;;;;5043828;28;20273;-72
2022/02/20 03:04:31;;;;;;;;;;;4.30;89.80;;;;;;5023949;28;19913;-72
2022/02/20 03:06:57;;;;;;;;;;;4.20;90.50;;;;;;5015041;28;19913;-72
2022/02/20 03:09:23;;;;;;;;;;;4.30;90.60;;;;;;5030136;28;19962;-72
2022/02/20 03:11:49;;;;;;;;;;;4.20;91.40;;;;;;5018469;28;20284;-72
2022/02/20 03:14:14;;;;;;;;;;;4.20;92.30;;;;;;5034593;28;20050;-72
2022/02/20 03:16:40;;;;;;;;;;;4.20;93.00;;;;;;5052648;28;19975;-72
2022/02/20 03:19:07;;;;;;;;;;;4.10;94.30;;;;;;5032901;28;20384;-72
2022/02/20 03:21:33;;;;;;;;;;;4.00;94.90;;;;;;5014781;28;19949;-72
2022/02/20 03:23:58;;;;;;;;;;;3.90;94.90;;;;;;5032613;28;19952;-72
2022/02/20 03:26:24;;;;;;;;;;;3.90;95.10;;;;;;5014735;28;20348;-72
2022/02/20 03:28:49;;;;;;;;;;;3.90;95.60;;;;;;4998189;28;20059;-72
2022/02/20 03:31:15;;;;;;;;;;;3.90;95.20;;;;;;5014993;28;19909;-72
2022/02/20 03:33:41;;;;;;;;;;;3.80;97.00;;;;;;5014633;28;19979;-72
2022/02/20 03:36:07;;;;;;;;;;;3.80;95.80;;;;;;5032720;28;19909;-72
2022/02/20 03:38:33;;;;;;;;;;;3.80;95.90;;;;;;5032495;28;19983;-72
2022/02/20 03:40:58;;;;;;;;;;;3.80;95.70;;;;;;5014679;28;19931;-72
2022/02/20 03:43:24;;;;;;;;;;;3.90;95.70;;;;;;5032341;28;19920;-72
2022/02/20 03:45:49;;;;;;;;;;;3.90;95.70;;;;;;5014412;28;19940;-72
2022/02/20 03:48:15;;;;;;;;;;;3.90;95.80;;;;;;5032453;28;19909;-73
2022/02/20 03:50:41;;;;;;;;;;;3.90;95.50;;;;;;5030758;28;19909;-72
2022/02/20 03:53:06;;;;;;;;;;;3.80;95.60;;;;;;5014168;28;19913;-72
2022/02/20 03:55:32;;;;;;;;;;;3.80;95.70;;;;;;5032180;28;19913;-72
2022/02/20 03:57:58;;;;;;;;;;;3.80;95.60;;;;;;5032185;28;19955;-72
2022/02/20 04:00:25;;;;;;;;;;;3.90;95.70;;;;;;5032105;28;20396;-72
2022/02/20 04:02:50;;;;;;;;;;;3.90;95.60;;;;;;5014354;28;19958;-72
2022/02/20 04:05:17;;;;;;;;;;;3.90;95.70;;;;;;5014283;28;20331;-72
2022/02/20 04:07:42;;;;;;;;;;;3.90;95.90;;;;;;4998049;28;19913;-72
2022/02/20 04:10:10;;;;;;;;;;;3.90;96.30;;;;;;5032175;28;19935;-72
2022/02/20 04:12:36;;;;;;;;;;;3.90;96.90;;;;;;5014324;28;20003;-72
2022/02/20 04:15:02;;;;;;;;;;;3.90;97.40;;;;;;5032064;28;19960;-72
2022/02/20 04:17:28;;;;;;;;;;;3.90;97.30;;;;;;5034840;28;20372;-72
2022/02/20 04:19:54;;;;;;;;;;;3.90;97.60;;;;;;5035988;28;19987;-72
2022/02/20 04:22:20;;;;;;;;;;;3.90;97.60;;;;;;5036100;28;19910;-72
2022/02/20 04:24:46;;;;;;;;;;;4.00;97.70;;;;;;5035918;28;19913;-72
2022/02/20 04:27:12;;;;;;;;;;;4.00;97.70;;;;;;5035463;28;20323;-72
2022/02/20 04:29:37;;;;;;;;;;;4.00;97.50;;;;;;5035815;28;19909;-72
2022/02/20 04:32:04;;;;;;;;;;;4.10;97.20;;;;;;5035818;28;19955;-72
2022/02/20 04:34:29;;;;;;;;;;;4.10;97.10;;;;;;5001524;28;19916;-72
2022/02/20 04:36:55;;;;;;;;;;;4.10;96.50;;;;;;5035547;28;19913;-72
2022/02/20 04:39:20;;;;;;;;;;;4.10;96.40;;;;;;5017841;28;19909;-72
2022/02/20 04:41:46;;;;;;;;;;;4.10;96.40;;;;;;5017932;28;20007;-72
2022/02/20 04:44:12;;;;;;;;;;;4.10;96.70;;;;;;5035396;28;19960;-72
2022/02/20 04:46:37;;;;;;;;;;;4.10;96.50;;;;;;5035447;28;19960;-72
2022/02/20 04:49:04;;;;;;;;;;;4.20;96.50;;;;;;5035535;28;19916;-72
2022/02/20 04:51:30;;;;;;;;;;;4.20;96.30;;;;;;5035500;28;19909;-72
2022/02/20 04:53:56;;;;;;;;;;;4.20;96.60;;;;;;5035172;28;19917;-72
2022/02/20 04:56:21;;;;;;;;;;;4.20;96.50;;;;;;5035206;28;19909;-72
2022/02/20 04:58:47;;;;;;;;;;;4.20;96.30;;;;;;5035300;28;20500;-72
2022/02/20 05:01:13;;;;;;;;;;;4.30;96.30;;;;;;5001056;28;20281;-72
2022/02/20 05:03:38;;;;;;;;;;;4.30;96.30;;;;;;5001010;28;20361;-72
2022/02/20 05:06:04;;;;;;;;;;;4.30;96.20;;;;;;5034977;28;20003;-73
2022/02/20 05:08:29;;;;;;;;;;;4.30;95.90;;;;;;5035032;28;19913;-73
2022/02/20 05:10:55;;;;;;;;;;;4.40;95.90;;;;;;5035201;28;20296;-73
2022/02/20 05:13:21;;;;;;;;;;;4.40;95.60;;;;;;5017318;28;19959;-73
2022/02/20 05:15:49;;;;;;;;;;;4.40;95.50;;;;;;5034874;28;20000;-73
2022/02/20 05:18:15;;;;;;;;;;;4.50;95.50;;;;;;5034973;28;19909;-73
2022/02/20 05:20:42;;;;;;;;;;;4.40;95.10;;;;;;5034818;28;20336;-73
2022/02/20 05:23:10;;;;;;;;;;;4.40;94.90;;;;;;5033424;28;19966;-73
2022/02/20 05:25:36;;;;;;;;;;;4.50;94.90;;;;;;5016930;28;19913;-73
2022/02/20 05:28:02;;;;;;;;;;;4.50;94.80;;;;;;5034261;28;20212;-73
2022/02/20 05:30:27;;;;;;;;;;;4.40;94.50;;;;;;5034793;28;19910;-73
2022/02/20 05:32:53;;;;;;;;;;;4.50;94.40;;;;;;5034643;28;19909;-73
2022/02/20 05:35:19;;;;;;;;;;;4.50;94.40;;;;;;5016781;28;19916;-73
2022/02/20 05:37:46;;;;;;;;;;;4.50;94.10;;;;;;5034499;28;19913;-73
2022/02/20 05:40:13;;;;;;;;;;;4.50;94.10;;;;;;5034524;28;19913;-73
2022/02/20 05:42:38;;;;;;;;;;;4.60;94.00;;;;;;5016743;28;19944;-72
2022/02/20 05:45:04;;;;;;;;;;;4.70;93.90;;;;;;5016754;28;20396;-73
2022/02/20 05:47:30;;;;;;;;;;;4.60;93.50;;;;;;5016467;28;19917;-73
2022/02/20 05:49:56;;;;;;;;;;;4.70;93.60;;;;;;5034227;28;20368;-73
2022/02/20 05:52:21;;;;;;;;;;;4.70;93.50;;;;;;5016696;28;19909;-73
2022/02/20 05:54:47;;;;;;;;;;;4.70;93.50;;;;;;5034150;28;19924;-73
2022/02/20 05:57:13;;;;;;;;;;;4.70;93.70;;;;;;5034235;28;19995;-73
2022/02/20 05:59:38;;;;;;;;;;;4.70;93.40;;;;;;5016434;28;19940;-73
2022/02/20 06:02:04;;;;;;;;;;;4.70;93.30;;;;;;5034147;28;20436;-72
2022/02/20 06:04:29;;;;;;;;;;;4.70;93.50;;;;;;4999732;28;19963;-73
2022/02/20 06:06:55;;;;;;;;;;;4.70;93.30;;;;;;5033917;28;19909;-73
2022/02/20 06:09:21;;;;;;;;;;;4.70;93.70;;;;;;5034075;28;19913;-73
2022/02/20 06:11:46;;;;;;;;;;;4.80;93.70;;;;;;5016200;28;19910;-73
2022/02/20 06:14:12;;;;;;;;;;;4.80;93.80;;;;;;5016170;28;20360;-73
2022/02/20 06:16:37;;;;;;;;;;;4.80;93.50;;;;;;5033631;28;19967;-72
2022/02/20 06:19:03;;;;;;;;;;;4.80;93.60;;;;;;5033665;28;20327;-72
2022/02/20 06:21:29;;;;;;;;;;;4.80;93.70;;;;;;5016116;28;19932;-72
2022/02/20 06:23:54;;;;;;;;;;;4.80;93.80;;;;;;5033749;28;19960;-72
2022/02/20 06:26:20;;;;;;;;;;;4.80;93.90;;;;;;5033469;28;19909;-73
2022/02/20 06:28:46;;;;;;;;;;;4.80;93.80;;;;;;5034057;28;19909;-72
2022/02/20 06:31:11;;;;;;;;;;;4.80;93.80;;;;;;5034027;28;19909;-72
2022/02/20 06:33:37;;;;;;;;;;;4.80;93.80;;;;;;5033644;28;19916;-73
2022/02/20 06:36:03;;;;;;;;;;;4.80;93.90;;;;;;5033322;28;20350;-72
2022/02/20 06:38:28;;;;;;;;;;;4.80;93.90;;;;;;5015388;28;19909;-72
2022/02/20 06:40:54;;;;;;;;;;;4.80;93.60;;;;;;5015107;28;20008;-73
2022/02/20 06:43:19;;;;;;;;;;;4.90;93.60;;;;;;5015512;28;19909;-72
2022/02/20 06:45:45;;;;;;;;;;;4.90;93.70;;;;;;5032725;28;20405;-72
2022/02/20 06:48:11;;;;;;;;;;;4.90;93.50;;;;;;5032803;28;19987;-73
2022/02/20 06:50:36;;;;;;;;;;;4.90;93.70;;;;;;5033268;28;19917;-73
2022/02/20 06:53:05;;;;;;;;;;;4.90;93.80;;;;;;5032957;28;19957;-73
2022/02/20 06:55:31;;;;;;;;;;;5.00;93.90;;;;;;5015226;28;19909;-73
2022/02/20 06:57:58;;;;;;;;;;;5.00;93.80;;;;;;5033086;28;19932;-73
2022/02/20 07:00:23;;;;;;;;;;;5.00;93.90;;;;;;5015189;28;19916;-73
2022/02/20 07:02:49;;;;;;;;;;;5.00;94.10;;;;;;5032973;28;20351;-72
2022/02/20 07:05:14;;;;;;;;;;;5.00;94.30;;;;;;5032826;28;19913;-72
2022/02/20 07:07:40;;;;;;;;;;;5.00;94.40;;;;;;5015279;28;19909;-72
2022/02/20 07:10:07;;;;;;;;;;;5.00;94.50;;;;;;5015232;28;20407;-73
2022/02/20 07:12:33;;;;;;;;;;;5.10;94.70;;;;;;5032830;28;19909;-72
2022/02/20 07:14:58;;;;;;;;;;;5.10;94.70;;;;;;5031414;28;20265;-72
2022/02/20 07:17:24;;;;;;;;;;;5.00;95.00;;;;;;5032779;28;19960;-73
2022/02/20 07:19:50;;;;;;;;;;;5.10;95.00;;;;;;5032768;28;19909;-73
2022/02/20 07:22:15;;;;;;;;;;;5.00;95.00;;;;;;5015028;28;19949;-73
2022/02/20 07:24:42;;;;;;;;;;;5.10;95.20;;;;;;5032539;28;20235;-72
2022/02/20 07:27:08;;;;;;;;;;;5.10;95.30;;;;;;5014735;28;20369;-72
2022/02/20 07:29:34;;;;;;;;;;;5.10;95.40;;;;;;5014879;28;20372;-73
2022/02/20 07:32:00;;;;;;;;;;;5.20;95.50;;;;;;5014711;28;19952;-73
2022/02/20 07:34:25;;;;;;;;;;;5.20;95.40;;;;;;5032603;28;19909;-73
2022/02/20 07:36:51;;;;;;;;;;;5.30;95.60;;;;;;5032394;28;19909;-72
2022/02/20 07:39:17;;;;;;;;;;;5.20;95.80;;;;;;5032409;28;20368;-72
2022/02/20 07:41:42;;;;;;;;;;;5.30;95.90;;;;;;5032408;28;19916;-73
2022/02/20 07:44:08;;;;;;;;;;;5.30;95.60;;;;;;5032380;28;20269;-72
2022/02/20 07:46:34;;;;;;;;;;;5.30;95.70;;;;;;5032280;28;19921;-73
2022/02/20 07:48:59;;;;;;;;;;;5.40;95.80;;;;;;5032340;28;19970;-73
2022/02/20 07:51:25;;;;;;;;;;;5.40;95.70;;;;;;5014541;28;20365;-73
2022/02/20 07:53:51;;;;;;;;;;;5.30;95.50;;;;;;5014755;28;19988;-72
2022/02/20 07:56:17;;;;;;;;;;;5.20;95.80;;;;;;5032039;28;19913;-72
2022/02/20 07:58:43;;;;;;;;;;;5.40;95.90;;;;;;5032232;28;19913;-72
2022/02/20 08:01:10;;;;;;;;;;;5.40;95.30;;;;;;5014462;28;19909;-73
2022/02/20 08:03:36;;;;;;;;;;;5.40;95.50;;;;;;5014267;28;19932;-72
2022/02/20 08:06:03;;;;;;;;;;;5.50;95.20;;;;;;5031874;28;19960;-72
2022/02/20 08:08:29;;;;;;;;;;;5.50;95.30;;;;;;5031944;28;19909;-72
2022/02/20 08:10:56;;;;;;;;;;;5.50;95.20;;;;;;5014393;28;19913;-72
2022/02/20 08:13:21;;;;;;;;;;;5.60;95.00;;;;;;5014342;28;19959;-72
2022/02/20 08:15:47;;;;;;;;;;;5.60;95.10;;;;;;5014196;28;20487;-72
2022/02/20 08:18:13;;;;;;;;;;;5.60;94.80;;;;;;5032046;28;19913;-72
2022/02/20 08:20:40;;;;;;;;;;;5.70;94.70;;;;;;5031973;28;19917;-72
2022/02/20 08:23:06;;;;;;;;;;;5.70;94.30;;;;;;5031789;28;19909;-72
2022/02/20 08:25:32;;;;;;;;;;;5.70;94.50;;;;;;5031776;28;19924;-71
2022/02/20 08:27:58;;;;;;;;;;;5.90;94.40;;;;;;5031889;28;19909;-71
2022/02/20 08:30:25;;;;;;;;;;;6.00;94.10;;;;;;5032066;28;20300;-72
2022/02/20 08:32:50;;;;;;;;;;;6.10;93.90;;;;;;5014319;28;19981;-72
2022/02/20 08:35:16;;;;;;;;;;;6.00;93.60;;;;;;5035263;28;19913;-72
2022/02/20 08:37:45;;;;;;;;;;;6.10;93.60;;;;;;5025158;28;19909;-72
2022/02/20 08:40:12;;;;;;;;;;;6.20;93.60;;;;;;5022036;28;19913;-72
2022/02/20 08:42:37;;;;;;;;;;;6.30;93.50;;;;;;5031711;28;20247;-72
2022/02/20 08:45:03;;;;;;;;;;;6.40;92.90;;;;;;5030719;28;19913;-78
2022/02/20 08:47:29;;;;;;;;;;;6.40;92.80;;;;;;5017121;28;20328;-73
2022/02/20 08:49:55;;;;;;;;;;;6.30;92.80;;;;;;5051398;28;19909;-72
2022/02/20 08:52:21;;;;;;;;;;;6.30;92.90;;;;;;5051431;28;20356;-72
2022/02/20 08:54:47;;;;;;;;;;;6.50;92.90;;;;;;5051824;28;19921;-72
2022/02/20 08:57:13;;;;;;;;;;;6.50;93.00;;;;;;5051753;28;19909;-72
2022/02/20 08:59:39;;;;;;;;;;;6.50;92.80;;;;;;5051602;28;19934;-72
2022/02/20 09:02:04;;;;;;;;;;;6.60;93.00;;;;;;5051776;28;19913;-72
2022/02/20 09:04:30;;;;;;;;;;;6.60;92.90;;;;;;5055484;28;19919;-72
2022/02/20 09:06:55;;;;;;;;;;;6.60;92.70;;;;;;5055050;28;20455;-73
2022/02/20 09:09:21;;;;;;;;;;;6.60;92.70;;;;;;5037440;28;20250;-72
2022/02/20 09:11:47;;;;;;;;;;;6.70;92.80;;;;;;5054997;28;19940;-72
2022/02/20 09:14:14;;;;;;;;;;;6.70;92.80;;;;;;5047101;28;19976;-72
2022/02/20 09:16:40;;;;;;;;;;;6.80;92.60;;;;;;5044141;28;19909;-72
2022/02/20 09:19:06;;;;;;;;;;;6.60;92.90;;;;;;5020269;28;19909;-72
2022/02/20 09:21:32;;;;;;;;;;;6.70;93.00;;;;;;5053978;28;19909;-72
2022/02/20 09:23:58;;;;;;;;;;;6.70;92.70;;;;;;5050459;28;20044;-72
2022/02/20 09:26:24;;;;;;;;;;;6.90;92.70;;;;;;5034653;28;19924;-72
2022/02/20 09:28:49;;;;;;;;;;;6.90;92.50;;;;;;5034597;28;20000;-72
2022/02/20 09:31:15;;;;;;;;;;;7.10;92.30;;;;;;5034701;28;19916;-73
2022/02/20 09:33:41;;;;;;;;;;;7.10;92.10;;;;;;5046528;28;19963;-72
2022/02/20 09:36:07;;;;;;;;;;;7.20;91.80;;;;;;5043404;28;19918;-72
2022/02/20 09:38:35;;;;;;;;;;;7.40;91.70;;;;;;5042913;28;19913;-73
2022/02/20 09:41:01;;;;;;;;;;;7.60;91.50;;;;;;5037294;28;20003;-72
2022/02/20 09:43:27;;;;;;;;;;;7.90;90.70;;;;;;5041264;28;19910;-72
2022/02/20 09:45:52;;;;;;;;;;;8.10;90.80;;;;;;5044754;28;19917;-72
2022/02/20 09:48:18;;;;;;;;;;;8.00;89.40;;;;;;5054475;28;19909;-72
2022/02/20 09:50:44;;;;;;;;;;;8.30;89.60;;;;;;5038484;28;19969;-72
2022/02/20 09:53:11;;;;;;;;;;;8.50;87.50;;;;;;5034095;28;20365;-72
2022/02/20 09:55:36;;;;;;;;;;;8.80;85.20;;;;;;5034351;28;19916;-72
2022/02/20 09:58:02;;;;;;;;;;;9.30;85.00;;;;;;5039703;28;20368;-73
2022/02/20 10:00:27;;;;;;;;;;;9.10;82.80;;;;;;5053862;28;19913;-73
2022/02/20 10:02:53;;;;;;;;;;;9.30;83.60;;;;;;5052929;28;19936;-72
2022/02/20 10:05:20;;;;;;;;;;;9.80;80.80;;;;;;5053213;28;19913;-72
2022/02/20 10:07:46;;;;;;;;;;;9.90;79.50;;;;;;5030881;28;19909;-72
2022/02/20 10:10:13;;;;;;;;;;;9.90;78.40;;;;;;5047005;28;19909;-72
2022/02/20 10:12:39;;;;;;;;;;;10.10;78.70;;;;;;5003704;28;20035;-72
2022/02/20 10:15:25;;;;;;;;;;;10.00;78.10;;;;;;5039937;28;19952;-72
2022/02/20 10:17:56;;;;;;;;;;;10.60;76.30;;;;;;5019649;28;19909;-72
2022/02/20 10:20:23;;;;;;;;;;;10.00;76.20;;;;;;5016226;28;19913;-73
2022/02/20 10:22:49;;;;;;;;;;;9.90;77.70;;;;;;5015888;28;20000;-72
2022/02/20 10:25:14;;;;;;;;;;;10.00;77.50;;;;;;5047286;28;19924;-73
2022/02/20 10:27:53;;;;;;;;;;;10.20;76.70;;;;;;5053294;28;20344;-73
2022/02/20 10:30:23;;;;;;;;;;;10.60;74.90;;;;;;5053558;28;19908;-72
2022/02/20 10:33:05;;;;;;;;;;;10.90;74.00;;;;;;5053402;28;19954;-73
2022/02/20 10:35:34;;;;;;;;;;;11.40;72.80;;;;;;5035489;28;19913;-72
2022/02/20 10:38:10;;;;;;;;;;;11.20;71.50;;;;;;5053424;28;19909;-72
2022/02/20 10:40:36;;;;;;;;;;;11.50;71.10;;;;;;5035269;28;19909;-72
2022/02/20 10:43:06;;;;;;;;;;;11.60;69.30;;;;;;5033114;28;19916;-72
2022/02/20 10:45:33;;;;;;;;;;;11.70;68.80;;;;;;5013362;28;20031;-72
2022/02/20 10:47:59;;;;;;;;;;;11.10;70.20;;;;;;5032837;28;19917;-72
2022/02/20 10:50:26;;;;;;;;;;;11.20;70.70;;;;;;5048304;28;20360;-72
2022/02/20 10:53:11;;;;;;;;;;;11.30;69.50;;;;;;5034926;28;19998;-73
2022/02/20 10:55:40;;;;;;;;;;;11.80;68.80;;;;;;5035009;28;19913;-72
2022/02/20 10:58:10;;;;;;;;;;;11.80;68.20;;;;;;5053006;28;19955;-73
2022/02/20 11:00:44;;;;;;;;;;;11.20;68.60;;;;;;5053003;28;20323;-73
2022/02/20 11:03:12;;;;;;;;;;;11.20;69.50;;;;;;5052913;28;19908;-73
2022/02/20 11:05:38;;;;;;;;;;;11.10;69.30;;;;;;5052584;28;19983;-72
2022/02/20 11:08:04;;;;;;;;;;;10.80;70.40;;;;;;5052884;28;19916;-72
2022/02/20 11:10:30;;;;;;;;;;;10.60;70.70;;;;;;5052903;28;19916;-72
2022/02/20 11:12:56;;;;;;;;;;;10.50;71.40;;;;;;5052596;28;20376;-72
2022/02/20 11:15:22;;;;;;;;;;;10.50;71.60;;;;;;5052855;28;19905;-72
2022/02/20 11:17:50;;;;;;;;;;;10.30;71.80;;;;;;5052476;28;19908;-72
2022/02/20 11:20:16;;;;;;;;;;;10.00;72.50;;;;;;5052801;28;20296;-72
2022/02/20 11:22:44;;;;;;;;;;;9.80;73.20;;;;;;5052575;28;19908;-72
2022/02/20 11:25:09;;;;;;;;;;;9.80;73.30;;;;;;5052273;28;19943;-73
2022/02/20 11:27:36;;;;;;;;;;;9.70;73.50;;;;;;5034265;28;19948;-73
2022/02/20 11:30:02;;;;;;;;;;;9.90;73.30;;;;;;5052730;28;19991;-72
2022/02/20 11:32:28;;;;;;;;;;;10.50;71.90;;;;;;5052682;28;19909;-72
2022/02/20 11:34:54;;;;;;;;;;;11.00;70.50;;;;;;5052325;28;19913;-73
2022/02/20 11:37:20;;;;;;;;;;;11.90;67.60;;;;;;5052061;28;19909;-73
2022/02/20 11:39:59;;;;;;;;;;;11.70;67.00;;;;;;5052404;28;19919;-73
2022/02/20 11:42:25;;;;;;;;;;;11.80;67.30;;;;;;5052339;28;19913;-73
2022/02/20 11:44:54;;;;;;;;;;;11.30;65.30;;;;;;5052285;28;20464;-73
2022/02/20 11:47:35;;;;;;;;;;;10.80;67.30;;;;;;5034298;28;19908;-72
2022/02/20 11:50:24;;;;;;;;;;;10.80;67.50;;;;;;5040282;28;19913;-72
2022/02/20 11:52:51;;;;;;;;;;;10.90;66.70;;;;;;5021420;28;19936;-73
2022/02/20 11:55:53;;;;;;;;;;;11.30;65.90;;;;;;5055091;23;20016;-92
2022/02/20 11:58:44;;;;;;;;;;;11.90;64.80;;;;;;5040731;22;19932;-74
2022/02/20 12:01:11;;;;;;;;;;;12.30;62.60;;;;;;5032431;28;19951;-74
2022/02/20 12:03:43;;;;;;;;;;;12.90;62.80;;;;;;5032317;28;20433;-74
2022/02/20 12:06:08;;;;;;;;;;;13.80;60.60;;;;;;5032178;28;20360;-75
2022/02/20 12:08:36;;;;;;;;;;;13.90;59.10;;;;;;5040675;28;19919;-74
2022/02/20 12:11:08;;;;;;;;;;;13.70;58.70;;;;;;5052100;28;20388;-76
2022/02/20 12:13:34;;;;;;;;;;;13.70;58.90;;;;;;5052155;28;19917;-75
2022/02/20 12:16:18;;;;;;;;;;;14.20;58.80;;;;;;5034412;28;20390;-77
2022/02/20 12:19:03;;;;;;;;;;;14.70;57.40;;;;;;5050983;28;19909;-75
2022/02/20 12:21:30;;;;;;;;;;;14.50;55.40;;;;;;5058739;28;19909;-75
2022/02/20 12:23:57;;;;;;;;;;;14.40;56.20;;;;;;5033931;28;19909;-76
2022/02/20 12:26:42;;;;;;;;;;;15.10;56.70;;;;;;5051908;28;19920;-76
2022/02/20 12:29:10;;;;;;;;;;;15.60;53.70;;;;;;5051867;28;19915;-75
2022/02/20 12:31:54;;;;;;;;;;;14.90;54.30;;;;;;5051990;28;19909;-75
2022/02/20 12:34:39;;;;;;;;;;;15.20;54.20;;;;;;5050624;28;19909;-76
2022/02/20 12:37:05;;;;;;;;;;;15.50;52.70;;;;;;5052004;28;19917;-75
2022/02/20 12:39:31;;;;;;;;;;;15.30;52.90;;;;;;5055725;28;19909;-75
2022/02/20 12:42:01;;;;;;;;;;;14.70;53.50;;;;;;5055693;28;20053;-75
2022/02/20 12:44:27;;;;;;;;;;;14.20;55.20;;;;;;5055920;28;19913;-76
2022/02/20 12:46:52;;;;;;;;;;;13.90;55.20;;;;;;5055574;28;19909;-75
2022/02/20 12:49:18;;;;;;;;;;;14.20;55.40;;;;;;5053561;28;20009;-75
2022/02/20 12:51:44;;;;;;;;;;;14.20;54.80;;;;;;5054918;28;20023;-75
2022/02/20 12:54:12;;;;;;;;;;;14.70;55.20;;;;;;5054730;28;19909;-77
2022/02/20 12:56:38;;;;;;;;;;;14.90;53.60;;;;;;5055765;28;19908;-76
2022/02/20 12:59:03;;;;;;;;;;;15.10;54.50;;;;;;5055577;28;19920;-75
2022/02/20 13:01:29;;;;;;;;;;;14.60;52.90;;;;;;5036974;28;20338;-75
2022/02/20 13:03:55;;;;;;;;;;;14.20;54.20;;;;;;5054809;28;19908;-75
2022/02/20 13:06:32;;;;;;;;;;;14.40;54.70;;;;;;5053879;28;19978;-75
2022/02/20 13:08:58;;;;;;;;;;;14.60;53.80;;;;;;5054363;28;20391;-72
2022/02/20 13:11:24;;;;;;;;;;;15.00;53.70;;;;;;5054348;28;19913;-72
2022/02/20 13:13:50;;;;;;;;;;;15.00;53.20;;;;;;5055042;28;19913;-72
2022/02/20 13:16:17;;;;;;;;;;;13.70;55.00;;;;;;5055005;28;19913;-72
2022/02/20 13:18:43;;;;;;;;;;;12.80;56.60;;;;;;5055069;28;19967;-72
2022/02/20 13:21:15;;;;;;;;;;;12.60;57.80;;;;;;5054948;28;20212;-72
2022/02/20 13:23:47;;;;;;;;;;;12.20;58.50;;;;;;5055057;28;19909;-72
2022/02/20 13:26:14;;;;;;;;;;;12.00;59.50;;;;;;5053470;28;19913;-71
2022/02/20 13:28:44;;;;;;;;;;;12.10;60.00;;;;;;5053591;28;19909;-72
2022/02/20 13:31:09;;;;;;;;;;;11.70;60.20;;;;;;5054832;28;19909;-72
2022/02/20 13:33:39;;;;;;;;;;;11.40;61.10;;;;;;5054706;28;19915;-72
2022/02/20 13:36:06;;;;;;;;;;;11.10;61.60;;;;;;5054705;28;20261;-72
2022/02/20 13:38:32;;;;;;;;;;;11.00;62.20;;;;;;5054631;28;19916;-72
2022/02/20 13:40:58;;;;;;;;;;;10.90;62.80;;;;;;5054599;28;19909;-72
2022/02/20 13:43:37;;;;;;;;;;;10.90;62.90;;;;;;5054958;28;20279;-72
2022/02/20 13:46:03;;;;;;;;;;;11.00;63.40;;;;;;5054182;28;20306;-72
2022/02/20 13:48:29;;;;;;;;;;;11.30;63.30;;;;;;5054290;28;19916;-72
2022/02/20 13:51:09;;;;;;;;;;;11.40;62.40;;;;;;5054640;28;19909;-72
2022/02/20 13:53:44;;;;;;;;;;;11.50;62.40;;;;;;5052953;28;20363;-72
2022/02/20 13:56:11;;;;;;;;;;;11.80;62.10;;;;;;5054318;28;19908;-72
2022/02/20 13:58:36;;;;;;;;;;;12.00;61.80;;;;;;5054089;28;19924;-72
2022/02/20 14:01:02;;;;;;;;;;;12.00;61.00;;;;;;5054269;28;19909;-72
2022/02/20 14:03:28;;;;;;;;;;;11.90;61.10;;;;;;5054039;28;20000;-71
2022/02/20 14:05:54;;;;;;;;;;;11.70;61.40;;;;;;5054016;28;20400;-71
2022/02/20 14:08:19;;;;;;;;;;;11.70;62.00;;;;;;5054121;28;19909;-71
2022/02/20 14:10:56;;;;;;;;;;;11.70;62.40;;;;;;5054137;28;19909;-72
2022/02/20 14:13:22;;;;;;;;;;;11.60;62.10;;;;;;5053978;28;19913;-71
2022/02/20 14:16:01;;;;;;;;;;;11.60;62.60;;;;;;5053859;28;20007;-72
2022/02/20 14:18:27;;;;;;;;;;;11.50;63.60;;;;;;5053904;28;19909;-72
2022/02/20 14:20:54;;;;;;;;;;;11.50;63.40;;;;;;5053869;28;19916;-72
2022/02/20 14:23:27;;;;;;;;;;;11.30;63.20;;;;;;5053762;28;19951;-72
2022/02/20 14:25:52;;;;;;;;;;;11.30;63.30;;;;;;5053523;28;19917;-72